Aviation Digital Data Service (ADDS)

Output produced by METARs form (1401 UTC 22 April 2019)
found at http://www.aviationweather.gov/metar/data/
 
METAR text: VTBD 221330Z 17008KT 140V200 9000 FEW030 32/26 Q1006 NOSIG
Conditions at: VTBD (BANGKOK/DON MUAN, TH) observed 1330 UTC 22 April 2019
Temperature: 32.0°C (90°F)
Dewpoint: 26.0°C (79°F) [RH = 71%]
Pressure (altimeter): 29.70 inches Hg (1006.0 mb)
Winds: from the S (170 degrees) at 9 MPH (8 knots; 4.1 m/s)
Visibility: 6 miles ( 9 km)
Ceiling: at least 12,000 feet AGL
Clouds: few clouds at 3000 feet AGL
Weather: no significant weather observed at this time

METAR text: VTBD 221300Z 19011KT 9000 FEW030 32/26 Q1006 NOSIG
Conditions at: VTBD (BANGKOK/DON MUAN, TH) observed 1300 UTC 22 April 2019
Temperature: 32.0°C (90°F)
Dewpoint: 26.0°C (79°F) [RH = 71%]
Pressure (altimeter): 29.70 inches Hg (1006.0 mb)
Winds: from the S (190 degrees) at 13 MPH (11 knots; 5.7 m/s)
Visibility: 6 miles ( 9 km)
Ceiling: at least 12,000 feet AGL
Clouds: few clouds at 3000 feet AGL
Weather: no significant weather observed at this time

METAR text: VTBD 221230Z 18007KT 150V210 9000 FEW030 32/26 Q1006 NOSIG
Conditions at: VTBD (BANGKOK/DON MUAN, TH) observed 1230 UTC 22 April 2019
Temperature: 32.0°C (90°F)
Dewpoint: 26.0°C (79°F) [RH = 71%]
Pressure (altimeter): 29.70 inches Hg (1006.0 mb)
Winds: from the S (180 degrees) at 8 MPH (7 knots; 3.6 m/s)
Visibility: 6 miles ( 9 km)
Ceiling: at least 12,000 feet AGL
Clouds: few clouds at 3000 feet AGL
Weather: no significant weather observed at this time

METAR text: VTBD 221200Z 21010KT 9000 FEW030 32/26 Q1005 NOSIG
Conditions at: VTBD (BANGKOK/DON MUAN, TH) observed 1200 UTC 22 April 2019
Temperature: 32.0°C (90°F)
Dewpoint: 26.0°C (79°F) [RH = 71%]
Pressure (altimeter): 29.68 inches Hg (1005.0 mb)
Winds: from the SSW (210 degrees) at 12 MPH (10 knots; 5.1 m/s)
Visibility: 6 miles ( 9 km)
Ceiling: at least 12,000 feet AGL
Clouds: few clouds at 3000 feet AGL
Weather: no significant weather observed at this time

METAR text: VTBD 221130Z 19010KT 160V230 9999 FEW030 32/26 Q1005 NOSIG
Conditions at: VTBD (BANGKOK/DON MUAN, TH) observed 1130 UTC 22 April 2019
Temperature: 32.0°C (90°F)
Dewpoint: 26.0°C (79°F) [RH = 71%]
Pressure (altimeter): 29.68 inches Hg (1005.0 mb)
Winds: from the S (190 degrees) at 12 MPH (10 knots; 5.1 m/s)
Visibility: 6 or more miles (10+ km)
Ceiling: at least 12,000 feet AGL
Clouds: few clouds at 3000 feet AGL
Weather: no significant weather observed at this time

METAR text: VTBD 221100Z 21011KT 9999 FEW030 33/26 Q1005 NOSIG
Conditions at: VTBD (BANGKOK/DON MUAN, TH) observed 1100 UTC 22 April 2019
Temperature: 33.0°C (91°F)
Dewpoint: 26.0°C (79°F) [RH = 67%]
Pressure (altimeter): 29.68 inches Hg (1005.0 mb)
Winds: from the SSW (210 degrees) at 13 MPH (11 knots; 5.7 m/s)
Visibility: 6 or more miles (10+ km)
Ceiling: at least 12,000 feet AGL
Clouds: few clouds at 3000 feet AGL
Weather: no significant weather observed at this time

METAR text: VTBD 221030Z 18010KT 150V210 9999 FEW030 34/25 Q1004 NOSIG
Conditions at: VTBD (BANGKOK/DON MUAN, TH) observed 1030 UTC 22 April 2019
Temperature: 34.0°C (93°F)
Dewpoint: 25.0°C (77°F) [RH = 60%]
Pressure (altimeter): 29.65 inches Hg (1004.0 mb)
Winds: from the S (180 degrees) at 12 MPH (10 knots; 5.1 m/s)
Visibility: 6 or more miles (10+ km)
Ceiling: at least 12,000 feet AGL
Clouds: few clouds at 3000 feet AGL
Weather: no significant weather observed at this time

METAR text: VTBD 221000Z 18011KT 150V210 9999 FEW030 35/25 Q1004 NOSIG
Conditions at: VTBD (BANGKOK/DON MUAN, TH) observed 1000 UTC 22 April 2019
Temperature: 35.0°C (95°F)
Dewpoint: 25.0°C (77°F) [RH = 56%]
Pressure (altimeter): 29.65 inches Hg (1004.0 mb)
Winds: from the S (180 degrees) at 13 MPH (11 knots; 5.7 m/s)
Visibility: 6 or more miles (10+ km)
Ceiling: at least 12,000 feet AGL
Clouds: few clouds at 3000 feet AGL
Weather: no significant weather observed at this time

METAR text: VTBD 220930Z 18010KT 9999 FEW030 36/25 Q1004 NOSIG
Conditions at: VTBD (BANGKOK/DON MUAN, TH) observed 0930 UTC 22 April 2019
Temperature: 36.0°C (97°F)
Dewpoint: 25.0°C (77°F) [RH = 53%]
Pressure (altimeter): 29.65 inches Hg (1004.0 mb)
Winds: from the S (180 degrees) at 12 MPH (10 knots; 5.1 m/s)
Visibility: 6 or more miles (10+ km)
Ceiling: at least 12,000 feet AGL
Clouds: few clouds at 3000 feet AGL
Weather: no significant weather observed at this time

METAR text: VTBD 220900Z 18010KT 140V200 9999 FEW030 36/24 Q1003 NOSIG
Conditions at: VTBD (BANGKOK/DON MUAN, TH) observed 0900 UTC 22 April 2019
Temperature: 36.0°C (97°F)
Dewpoint: 24.0°C (75°F) [RH = 50%]
Pressure (altimeter): 29.62 inches Hg (1003.0 mb)
Winds: from the S (180 degrees) at 12 MPH (10 knots; 5.1 m/s)
Visibility: 6 or more miles (10+ km)
Ceiling: at least 12,000 feet AGL
Clouds: few clouds at 3000 feet AGL
Weather: no significant weather observed at this time

METAR text: VTBD 220830Z 17012G22KT 130V200 9999 FEW030 37/25 Q1003 NOSIG
Conditions at: VTBD (BANGKOK/DON MUAN, TH) observed 0830 UTC 22 April 2019
Temperature: 37.0°C (99°F)
Dewpoint: 25.0°C (77°F) [RH = 50%]
Pressure (altimeter): 29.62 inches Hg (1003.0 mb)
Winds: from the S (170 degrees) at 14 MPH (12 knots; 6.2 m/s)
gusting to 25 MPH (22 knots; 11.3 m/s)
Visibility: 6 or more miles (10+ km)
Ceiling: at least 12,000 feet AGL
Clouds: few clouds at 3000 feet AGL
Weather: no significant weather observed at this time

METAR text: VTBD 220800Z 18010KT 150V220 9999 FEW020CB SCT040 36/25 Q1003 NOSIG
Conditions at: VTBD (BANGKOK/DON MUAN, TH) observed 0800 UTC 22 April 2019
Temperature: 36.0°C (97°F)
Dewpoint: 25.0°C (77°F) [RH = 53%]
Pressure (altimeter): 29.62 inches Hg (1003.0 mb)
Winds: from the S (180 degrees) at 12 MPH (10 knots; 5.1 m/s)
Visibility: 6 or more miles (10+ km)
Ceiling: at least 12,000 feet AGL
Clouds: few clouds at 2000 feet AGL
scattered clouds at 4000 feet AGL
Weather: no significant weather observed at this time

METAR text: VTBD 220730Z 19012KT 150V230 9999 FEW020CB SCT030 37/25 Q1004 NOSIG
Conditions at: VTBD (BANGKOK/DON MUAN, TH) observed 0730 UTC 22 April 2019
Temperature: 37.0°C (99°F)
Dewpoint: 25.0°C (77°F) [RH = 50%]
Pressure (altimeter): 29.65 inches Hg (1004.0 mb)
Winds: from the S (190 degrees) at 14 MPH (12 knots; 6.2 m/s)
Visibility: 6 or more miles (10+ km)
Ceiling: at least 12,000 feet AGL
Clouds: few clouds at 2000 feet AGL
scattered clouds at 3000 feet AGL
Weather: no significant weather observed at this time

METAR text: VTBD 220700Z 20014KT 9999 FEW020CB SCT030 37/25 Q1005 NOSIG
Conditions at: VTBD (BANGKOK/DON MUAN, TH) observed 0700 UTC 22 April 2019
Temperature: 37.0°C (99°F)
Dewpoint: 25.0°C (77°F) [RH = 50%]
Pressure (altimeter): 29.68 inches Hg (1005.0 mb)
Winds: from the SSW (200 degrees) at 16 MPH (14 knots; 7.2 m/s)
Visibility: 6 or more miles (10+ km)
Ceiling: at least 12,000 feet AGL
Clouds: few clouds at 2000 feet AGL
scattered clouds at 3000 feet AGL
Weather: no significant weather observed at this time

METAR text: VTBD 220630Z 20010KT 160V240 9999 FEW020TCU 38/26 Q1005 NOSIG
Conditions at: VTBD (BANGKOK/DON MUAN, TH) observed 0630 UTC 22 April 2019
Temperature: 38.0°C (100°F)
Dewpoint: 26.0°C (79°F) [RH = 51%]
Pressure (altimeter): 29.68 inches Hg (1005.0 mb)
Winds: from the SSW (200 degrees) at 12 MPH (10 knots; 5.1 m/s)
Visibility: 6 or more miles (10+ km)
Ceiling: at least 12,000 feet AGL
Clouds: few clouds at 2000 feet AGL
Weather: no significant weather observed at this time

METAR text: VTBD 220600Z 20011KT 150V240 9999 SCT020 37/26 Q1006 NOSIG
Conditions at: VTBD (BANGKOK/DON MUAN, TH) observed 0600 UTC 22 April 2019
Temperature: 37.0°C (99°F)
Dewpoint: 26.0°C (79°F) [RH = 54%]
Pressure (altimeter): 29.70 inches Hg (1006.0 mb)
Winds: from the SSW (200 degrees) at 13 MPH (11 knots; 5.7 m/s)
Visibility: 6 or more miles (10+ km)
Ceiling: at least 12,000 feet AGL
Clouds: scattered clouds at 2000 feet AGL
Weather: no significant weather observed at this time

METAR text: VTBD 220530Z 20010KT 9999 SCT020 36/26 Q1006 NOSIG
Conditions at: VTBD (BANGKOK/DON MUAN, TH) observed 0530 UTC 22 April 2019
Temperature: 36.0°C (97°F)
Dewpoint: 26.0°C (79°F) [RH = 57%]
Pressure (altimeter): 29.70 inches Hg (1006.0 mb)
Winds: from the SSW (200 degrees) at 12 MPH (10 knots; 5.1 m/s)
Visibility: 6 or more miles (10+ km)
Ceiling: at least 12,000 feet AGL
Clouds: scattered clouds at 2000 feet AGL
Weather: no significant weather observed at this time

METAR text: VTBD 220500Z 18011KT 150V210 9999 SCT020 37/25 Q1007 NOSIG
Conditions at: VTBD (BANGKOK/DON MUAN, TH) observed 0500 UTC 22 April 2019
Temperature: 37.0°C (99°F)
Dewpoint: 25.0°C (77°F) [RH = 50%]
Pressure (altimeter): 29.73 inches Hg (1007.0 mb)
Winds: from the S (180 degrees) at 13 MPH (11 knots; 5.7 m/s)
Visibility: 6 or more miles (10+ km)
Ceiling: at least 12,000 feet AGL
Clouds: scattered clouds at 2000 feet AGL
Weather: no significant weather observed at this time

METAR text: VTBD 220430Z 19011KT 150V220 9999 SCT020 36/25 Q1007 NOSIG
Conditions at: VTBD (BANGKOK/DON MUAN, TH) observed 0430 UTC 22 April 2019
Temperature: 36.0°C (97°F)
Dewpoint: 25.0°C (77°F) [RH = 53%]
Pressure (altimeter): 29.73 inches Hg (1007.0 mb)
Winds: from the S (190 degrees) at 13 MPH (11 knots; 5.7 m/s)
Visibility: 6 or more miles (10+ km)
Ceiling: at least 12,000 feet AGL
Clouds: scattered clouds at 2000 feet AGL
Weather: no significant weather observed at this time

METAR text: VTBD 220400Z 19011KT 150V230 9999 SCT020 35/26 Q1007 NOSIG
Conditions at: VTBD (BANGKOK/DON MUAN, TH) observed 0400 UTC 22 April 2019
Temperature: 35.0°C (95°F)
Dewpoint: 26.0°C (79°F) [RH = 60%]
Pressure (altimeter): 29.73 inches Hg (1007.0 mb)
Winds: from the S (190 degrees) at 13 MPH (11 knots; 5.7 m/s)
Visibility: 6 or more miles (10+ km)
Ceiling: at least 12,000 feet AGL
Clouds: scattered clouds at 2000 feet AGL
Weather: no significant weather observed at this time

METAR text: VTBD 220330Z 19011KT 9999 SCT020 35/26 Q1008 NOSIG
Conditions at: VTBD (BANGKOK/DON MUAN, TH) observed 0330 UTC 22 April 2019
Temperature: 35.0°C (95°F)
Dewpoint: 26.0°C (79°F) [RH = 60%]
Pressure (altimeter): 29.76 inches Hg (1008.0 mb)
Winds: from the S (190 degrees) at 13 MPH (11 knots; 5.7 m/s)
Visibility: 6 or more miles (10+ km)
Ceiling: at least 12,000 feet AGL
Clouds: scattered clouds at 2000 feet AGL
Weather: no significant weather observed at this time

METAR text: VTBD 220300Z 21012KT 9999 SCT020 SCT030 35/26 Q1008 NOSIG
Conditions at: VTBD (BANGKOK/DON MUAN, TH) observed 0300 UTC 22 April 2019
Temperature: 35.0°C (95°F)
Dewpoint: 26.0°C (79°F) [RH = 60%]
Pressure (altimeter): 29.76 inches Hg (1008.0 mb)
Winds: from the SSW (210 degrees) at 14 MPH (12 knots; 6.2 m/s)
Visibility: 6 or more miles (10+ km)
Ceiling: at least 12,000 feet AGL
Clouds: scattered clouds at 2000 feet AGL
scattered clouds at 3000 feet AGL
Weather: no significant weather observed at this time

METAR text: VTBD 220230Z 20011KT 9999 SCT020 35/26 Q1007 NOSIG
Conditions at: VTBD (BANGKOK/DON MUAN, TH) observed 0230 UTC 22 April 2019
Temperature: 35.0°C (95°F)
Dewpoint: 26.0°C (79°F) [RH = 60%]
Pressure (altimeter): 29.73 inches Hg (1007.0 mb)
Winds: from the SSW (200 degrees) at 13 MPH (11 knots; 5.7 m/s)
Visibility: 6 or more miles (10+ km)
Ceiling: at least 12,000 feet AGL
Clouds: scattered clouds at 2000 feet AGL
Weather: no significant weather observed at this time

METAR text: VTBD 220200Z 19010KT 150V210 9999 SCT020 34/26 Q1007 NOSIG
Conditions at: VTBD (BANGKOK/DON MUAN, TH) observed 0200 UTC 22 April 2019
Temperature: 34.0°C (93°F)
Dewpoint: 26.0°C (79°F) [RH = 63%]
Pressure (altimeter): 29.73 inches Hg (1007.0 mb)
Winds: from the S (190 degrees) at 12 MPH (10 knots; 5.1 m/s)
Visibility: 6 or more miles (10+ km)
Ceiling: at least 12,000 feet AGL
Clouds: scattered clouds at 2000 feet AGL
Weather: no significant weather observed at this time

METAR text: VTBD 220130Z 16009KT 9999 SCT020 34/27 Q1007 NOSIG
Conditions at: VTBD (BANGKOK/DON MUAN, TH) observed 0130 UTC 22 April 2019
Temperature: 34.0°C (93°F)
Dewpoint: 27.0°C (81°F) [RH = 67%]
Pressure (altimeter): 29.73 inches Hg (1007.0 mb)
Winds: from the SSE (160 degrees) at 10 MPH (9 knots; 4.6 m/s)
Visibility: 6 or more miles (10+ km)
Ceiling: at least 12,000 feet AGL
Clouds: scattered clouds at 2000 feet AGL
Weather: no significant weather observed at this time

METAR text: VTBD 220100Z 17008KT 140V210 9000 FEW020 32/26 Q1007 NOSIG
Conditions at: VTBD (BANGKOK/DON MUAN, TH) observed 0100 UTC 22 April 2019
Temperature: 32.0°C (90°F)
Dewpoint: 26.0°C (79°F) [RH = 71%]
Pressure (altimeter): 29.73 inches Hg (1007.0 mb)
Winds: from the S (170 degrees) at 9 MPH (8 knots; 4.1 m/s)
Visibility: 6 miles ( 9 km)
Ceiling: at least 12,000 feet AGL
Clouds: few clouds at 2000 feet AGL
Weather: no significant weather observed at this time

METAR text: VTBD 220030Z 17007KT 130V210 9000 SCT020 31/27 Q1007 NOSIG
Conditions at: VTBD (BANGKOK/DON MUAN, TH) observed 0030 UTC 22 April 2019
Temperature: 31.0°C (88°F)
Dewpoint: 27.0°C (81°F) [RH = 79%]
Pressure (altimeter): 29.73 inches Hg (1007.0 mb)
Winds: from the S (170 degrees) at 8 MPH (7 knots; 3.6 m/s)
Visibility: 6 miles ( 9 km)
Ceiling: at least 12,000 feet AGL
Clouds: scattered clouds at 2000 feet AGL
Weather: no significant weather observed at this time

METAR text: VTBD 220000Z 17007KT 130V190 9000 SCT020 31/27 Q1006 NOSIG
Conditions at: VTBD (BANGKOK/DON MUAN, TH) observed 0000 UTC 22 April 2019
Temperature: 31.0°C (88°F)
Dewpoint: 27.0°C (81°F) [RH = 79%]
Pressure (altimeter): 29.70 inches Hg (1006.0 mb)
Winds: from the S (170 degrees) at 8 MPH (7 knots; 3.6 m/s)
Visibility: 6 miles ( 9 km)
Ceiling: at least 12,000 feet AGL
Clouds: scattered clouds at 2000 feet AGL
Weather: no significant weather observed at this time

METAR text: VTBD 212330Z 17005KT 9000 SCT020 31/27 Q1006 NOSIG
Conditions at: VTBD (BANGKOK/DON MUAN, TH) observed 2330 UTC 21 April 2019
Temperature: 31.0°C (88°F)
Dewpoint: 27.0°C (81°F) [RH = 79%]
Pressure (altimeter): 29.70 inches Hg (1006.0 mb)
Winds: from the S (170 degrees) at 6 MPH (5 knots; 2.6 m/s)
Visibility: 6 miles ( 9 km)
Ceiling: at least 12,000 feet AGL
Clouds: scattered clouds at 2000 feet AGL
Weather: no significant weather observed at this time

METAR text: VTBD 212300Z 17006KT 9000 FEW020 31/27 Q1005 NOSIG
Conditions at: VTBD (BANGKOK/DON MUAN, TH) observed 2300 UTC 21 April 2019
Temperature: 31.0°C (88°F)
Dewpoint: 27.0°C (81°F) [RH = 79%]
Pressure (altimeter): 29.68 inches Hg (1005.0 mb)
Winds: from the S (170 degrees) at 7 MPH (6 knots; 3.1 m/s)
Visibility: 6 miles ( 9 km)
Ceiling: at least 12,000 feet AGL
Clouds: few clouds at 2000 feet AGL
Weather: no significant weather observed at this time

METAR text: VTBD 212230Z 18009KT 9000 FEW020 31/27 Q1005 NOSIG
Conditions at: VTBD (BANGKOK/DON MUAN, TH) observed 2230 UTC 21 April 2019
Temperature: 31.0°C (88°F)
Dewpoint: 27.0°C (81°F) [RH = 79%]
Pressure (altimeter): 29.68 inches Hg (1005.0 mb)
Winds: from the S (180 degrees) at 10 MPH (9 knots; 4.6 m/s)
Visibility: 6 miles ( 9 km)
Ceiling: at least 12,000 feet AGL
Clouds: few clouds at 2000 feet AGL
Weather: no significant weather observed at this time

METAR text: VTBD 212200Z 17008KT 9000 FEW020 31/27 Q1005 NOSIG
Conditions at: VTBD (BANGKOK/DON MUAN, TH) observed 2200 UTC 21 April 2019
Temperature: 31.0°C (88°F)
Dewpoint: 27.0°C (81°F) [RH = 79%]
Pressure (altimeter): 29.68 inches Hg (1005.0 mb)
Winds: from the S (170 degrees) at 9 MPH (8 knots; 4.1 m/s)
Visibility: 6 miles ( 9 km)
Ceiling: at least 12,000 feet AGL
Clouds: few clouds at 2000 feet AGL
Weather: no significant weather observed at this time

METAR text: VTBD 212130Z 17005KT 9000 FEW020 31/27 Q1005 NOSIG
Conditions at: VTBD (BANGKOK/DON MUAN, TH) observed 2130 UTC 21 April 2019
Temperature: 31.0°C (88°F)
Dewpoint: 27.0°C (81°F) [RH = 79%]
Pressure (altimeter): 29.68 inches Hg (1005.0 mb)
Winds: from the S (170 degrees) at 6 MPH (5 knots; 2.6 m/s)
Visibility: 6 miles ( 9 km)
Ceiling: at least 12,000 feet AGL
Clouds: few clouds at 2000 feet AGL
Weather: no significant weather observed at this time

METAR text: VTBD 212100Z 16006KT 9000 FEW030 31/27 Q1004 NOSIG
Conditions at: VTBD (BANGKOK/DON MUAN, TH) observed 2100 UTC 21 April 2019
Temperature: 31.0°C (88°F)
Dewpoint: 27.0°C (81°F) [RH = 79%]
Pressure (altimeter): 29.65 inches Hg (1004.0 mb)
Winds: from the SSE (160 degrees) at 7 MPH (6 knots; 3.1 m/s)
Visibility: 6 miles ( 9 km)
Ceiling: at least 12,000 feet AGL
Clouds: few clouds at 3000 feet AGL
Weather: no significant weather observed at this time

METAR text: VTBD 212030Z 17005KT 9000 FEW030 31/27 Q1004 NOSIG
Conditions at: VTBD (BANGKOK/DON MUAN, TH) observed 2030 UTC 21 April 2019
Temperature: 31.0°C (88°F)
Dewpoint: 27.0°C (81°F) [RH = 79%]
Pressure (altimeter): 29.65 inches Hg (1004.0 mb)
Winds: from the S (170 degrees) at 6 MPH (5 knots; 2.6 m/s)
Visibility: 6 miles ( 9 km)
Ceiling: at least 12,000 feet AGL
Clouds: few clouds at 3000 feet AGL
Weather: no significant weather observed at this time

METAR text: VTBD 212000Z 16005KT 9000 FEW030 31/27 Q1004 NOSIG
Conditions at: VTBD (BANGKOK/DON MUAN, TH) observed 2000 UTC 21 April 2019
Temperature: 31.0°C (88°F)
Dewpoint: 27.0°C (81°F) [RH = 79%]
Pressure (altimeter): 29.65 inches Hg (1004.0 mb)
Winds: from the SSE (160 degrees) at 6 MPH (5 knots; 2.6 m/s)
Visibility: 6 miles ( 9 km)
Ceiling: at least 12,000 feet AGL
Clouds: few clouds at 3000 feet AGL
Weather: no significant weather observed at this time

METAR text: VTBD 211930Z 16006KT 130V190 9000 FEW030 31/27 Q1004 NOSIG
Conditions at: VTBD (BANGKOK/DON MUAN, TH) observed 1930 UTC 21 April 2019
Temperature: 31.0°C (88°F)
Dewpoint: 27.0°C (81°F) [RH = 79%]
Pressure (altimeter): 29.65 inches Hg (1004.0 mb)
Winds: from the SSE (160 degrees) at 7 MPH (6 knots; 3.1 m/s)
Visibility: 6 miles ( 9 km)
Ceiling: at least 12,000 feet AGL
Clouds: few clouds at 3000 feet AGL
Weather: no significant weather observed at this time

METAR text: VTBD 211900Z 17008KT 9000 FEW030 31/27 Q1004 NOSIG
Conditions at: VTBD (BANGKOK/DON MUAN, TH) observed 1900 UTC 21 April 2019
Temperature: 31.0°C (88°F)
Dewpoint: 27.0°C (81°F) [RH = 79%]
Pressure (altimeter): 29.65 inches Hg (1004.0 mb)
Winds: from the S (170 degrees) at 9 MPH (8 knots; 4.1 m/s)
Visibility: 6 miles ( 9 km)
Ceiling: at least 12,000 feet AGL
Clouds: few clouds at 3000 feet AGL
Weather: no significant weather observed at this time

METAR text: VTBD 211830Z 19010KT 9000 FEW030 31/27 Q1004 NOSIG
Conditions at: VTBD (BANGKOK/DON MUAN, TH) observed 1830 UTC 21 April 2019
Temperature: 31.0°C (88°F)
Dewpoint: 27.0°C (81°F) [RH = 79%]
Pressure (altimeter): 29.65 inches Hg (1004.0 mb)
Winds: from the S (190 degrees) at 12 MPH (10 knots; 5.1 m/s)
Visibility: 6 miles ( 9 km)
Ceiling: at least 12,000 feet AGL
Clouds: few clouds at 3000 feet AGL
Weather: no significant weather observed at this time

METAR text: VTBD 211800Z 19009KT 9000 FEW030 31/27 Q1004 NOSIG
Conditions at: VTBD (BANGKOK/DON MUAN, TH) observed 1800 UTC 21 April 2019
Temperature: 31.0°C (88°F)
Dewpoint: 27.0°C (81°F) [RH = 79%]
Pressure (altimeter): 29.65 inches Hg (1004.0 mb)
Winds: from the S (190 degrees) at 10 MPH (9 knots; 4.6 m/s)
Visibility: 6 miles ( 9 km)
Ceiling: at least 12,000 feet AGL
Clouds: few clouds at 3000 feet AGL
Weather: no significant weather observed at this time

METAR text: VTBD 211730Z 17008KT 9000 FEW030 31/26 Q1005 NOSIG
Conditions at: VTBD (BANGKOK/DON MUAN, TH) observed 1730 UTC 21 April 2019
Temperature: 31.0°C (88°F)
Dewpoint: 26.0°C (79°F) [RH = 75%]
Pressure (altimeter): 29.68 inches Hg (1005.0 mb)
Winds: from the S (170 degrees) at 9 MPH (8 knots; 4.1 m/s)
Visibility: 6 miles ( 9 km)
Ceiling: at least 12,000 feet AGL
Clouds: few clouds at 3000 feet AGL
Weather: no significant weather observed at this time

METAR text: VTBD 211700Z 15005KT 9000 FEW030 32/25 Q1005 NOSIG
Conditions at: VTBD (BANGKOK/DON MUAN, TH) observed 1700 UTC 21 April 2019
Temperature: 32.0°C (90°F)
Dewpoint: 25.0°C (77°F) [RH = 67%]
Pressure (altimeter): 29.68 inches Hg (1005.0 mb)
Winds: from the SSE (150 degrees) at 6 MPH (5 knots; 2.6 m/s)
Visibility: 6 miles ( 9 km)
Ceiling: at least 12,000 feet AGL
Clouds: few clouds at 3000 feet AGL
Weather: no significant weather observed at this time

METAR text: VTBD 211630Z 14007KT 9000 FEW030 32/25 Q1006 NOSIG
Conditions at: VTBD (BANGKOK/DON MUAN, TH) observed 1630 UTC 21 April 2019
Temperature: 32.0°C (90°F)
Dewpoint: 25.0°C (77°F) [RH = 67%]
Pressure (altimeter): 29.70 inches Hg (1006.0 mb)
Winds: from the SE (140 degrees) at 8 MPH (7 knots; 3.6 m/s)
Visibility: 6 miles ( 9 km)
Ceiling: at least 12,000 feet AGL
Clouds: few clouds at 3000 feet AGL
Weather: no significant weather observed at this time

METAR text: VTBD 211600Z 16005KT 9000 FEW030 32/25 Q1006 NOSIG
Conditions at: VTBD (BANGKOK/DON MUAN, TH) observed 1600 UTC 21 April 2019
Temperature: 32.0°C (90°F)
Dewpoint: 25.0°C (77°F) [RH = 67%]
Pressure (altimeter): 29.70 inches Hg (1006.0 mb)
Winds: from the SSE (160 degrees) at 6 MPH (5 knots; 2.6 m/s)
Visibility: 6 miles ( 9 km)
Ceiling: at least 12,000 feet AGL
Clouds: few clouds at 3000 feet AGL
Weather: no significant weather observed at this time

METAR text: VTBD 211530Z 15007KT 9000 FEW030 32/25 Q1006 NOSIG
Conditions at: VTBD (BANGKOK/DON MUAN, TH) observed 1530 UTC 21 April 2019
Temperature: 32.0°C (90°F)
Dewpoint: 25.0°C (77°F) [RH = 67%]
Pressure (altimeter): 29.70 inches Hg (1006.0 mb)
Winds: from the SSE (150 degrees) at 8 MPH (7 knots; 3.6 m/s)
Visibility: 6 miles ( 9 km)
Ceiling: at least 12,000 feet AGL
Clouds: few clouds at 3000 feet AGL
Weather: no significant weather observed at this time

METAR text: VTBD 211500Z 17006KT 140V200 9000 FEW030 33/24 Q1006 NOSIG
Conditions at: VTBD (BANGKOK/DON MUAN, TH) observed 1500 UTC 21 April 2019
Temperature: 33.0°C (91°F)
Dewpoint: 24.0°C (75°F) [RH = 59%]
Pressure (altimeter): 29.70 inches Hg (1006.0 mb)
Winds: from the S (170 degrees) at 7 MPH (6 knots; 3.1 m/s)
Visibility: 6 miles ( 9 km)
Ceiling: at least 12,000 feet AGL
Clouds: few clouds at 3000 feet AGL
Weather: no significant weather observed at this time

METAR text: VTBD 211430Z 17007KT 140V200 9000 FEW030 33/25 Q1005 NOSIG
Conditions at: VTBD (BANGKOK/DON MUAN, TH) observed 1430 UTC 21 April 2019
Temperature: 33.0°C (91°F)
Dewpoint: 25.0°C (77°F) [RH = 63%]
Pressure (altimeter): 29.68 inches Hg (1005.0 mb)
Winds: from the S (170 degrees) at 8 MPH (7 knots; 3.6 m/s)
Visibility: 6 miles ( 9 km)
Ceiling: at least 12,000 feet AGL
Clouds: few clouds at 3000 feet AGL
Weather: no significant weather observed at this time

METAR text: VTBD 211400Z 16009KT 9000 FEW030 33/24 Q1005 NOSIG
Conditions at: VTBD (BANGKOK/DON MUAN, TH) observed 1400 UTC 21 April 2019
Temperature: 33.0°C (91°F)
Dewpoint: 24.0°C (75°F) [RH = 59%]
Pressure (altimeter): 29.68 inches Hg (1005.0 mb)
Winds: from the SSE (160 degrees) at 10 MPH (9 knots; 4.6 m/s)
Visibility: 6 miles ( 9 km)
Ceiling: at least 12,000 feet AGL
Clouds: few clouds at 3000 feet AGL
Weather: no significant weather observed at this time

METAR text: VTBD 211330Z 16009KT 9000 FEW030 33/24 Q1004 NOSIG
Conditions at: VTBD (BANGKOK/DON MUAN, TH) observed 1330 UTC 21 April 2019
Temperature: 33.0°C (91°F)
Dewpoint: 24.0°C (75°F) [RH = 59%]
Pressure (altimeter): 29.65 inches Hg (1004.0 mb)
Winds: from the SSE (160 degrees) at 10 MPH (9 knots; 4.6 m/s)
Visibility: 6 miles ( 9 km)
Ceiling: at least 12,000 feet AGL
Clouds: few clouds at 3000 feet AGL
Weather: no significant weather observed at this time

METAR text: VTBD 211300Z 18008KT 9000 FEW030 33/23 Q1004 NOSIG
Conditions at: VTBD (BANGKOK/DON MUAN, TH) observed 1300 UTC 21 April 2019
Temperature: 33.0°C (91°F)
Dewpoint: 23.0°C (73°F) [RH = 56%]
Pressure (altimeter): 29.65 inches Hg (1004.0 mb)
Winds: from the S (180 degrees) at 9 MPH (8 knots; 4.1 m/s)
Visibility: 6 miles ( 9 km)
Ceiling: at least 12,000 feet AGL
Clouds: few clouds at 3000 feet AGL
Weather: no significant weather observed at this time

METAR text: VTBD 211230Z 17009KT 140V200 9000 FEW030 34/24 Q1004 NOSIG
Conditions at: VTBD (BANGKOK/DON MUAN, TH) observed 1230 UTC 21 April 2019
Temperature: 34.0°C (93°F)
Dewpoint: 24.0°C (75°F) [RH = 56%]
Pressure (altimeter): 29.65 inches Hg (1004.0 mb)
Winds: from the S (170 degrees) at 10 MPH (9 knots; 4.6 m/s)
Visibility: 6 miles ( 9 km)
Ceiling: at least 12,000 feet AGL
Clouds: few clouds at 3000 feet AGL
Weather: no significant weather observed at this time

METAR text: VTBD 211200Z 18008KT 9000 FEW030 34/23 Q1003 NOSIG
Conditions at: VTBD (BANGKOK/DON MUAN, TH) observed 1200 UTC 21 April 2019
Temperature: 34.0°C (93°F)
Dewpoint: 23.0°C (73°F) [RH = 53%]
Pressure (altimeter): 29.62 inches Hg (1003.0 mb)
Winds: from the S (180 degrees) at 9 MPH (8 knots; 4.1 m/s)
Visibility: 6 miles ( 9 km)
Ceiling: at least 12,000 feet AGL
Clouds: few clouds at 3000 feet AGL
Weather: no significant weather observed at this time

METAR text: VTBD 211130Z 20009KT 9000 FEW030 35/22 Q1003 NOSIG
Conditions at: VTBD (BANGKOK/DON MUAN, TH) observed 1130 UTC 21 April 2019
Temperature: 35.0°C (95°F)
Dewpoint: 22.0°C (72°F) [RH = 47%]
Pressure (altimeter): 29.62 inches Hg (1003.0 mb)
Winds: from the SSW (200 degrees) at 10 MPH (9 knots; 4.6 m/s)
Visibility: 6 miles ( 9 km)
Ceiling: at least 12,000 feet AGL
Clouds: few clouds at 3000 feet AGL
Weather: no significant weather observed at this time

METAR text: VTBD 211100Z 21010KT 9000 FEW030 35/22 Q1002 NOSIG
Conditions at: VTBD (BANGKOK/DON MUAN, TH) observed 1100 UTC 21 April 2019
Temperature: 35.0°C (95°F)
Dewpoint: 22.0°C (72°F) [RH = 47%]
Pressure (altimeter): 29.59 inches Hg (1002.0 mb)
Winds: from the SSW (210 degrees) at 12 MPH (10 knots; 5.1 m/s)
Visibility: 6 miles ( 9 km)
Ceiling: at least 12,000 feet AGL
Clouds: few clouds at 3000 feet AGL
Weather: no significant weather observed at this time

METAR text: VTBD 211030Z 21012KT 9000 FEW030 36/22 Q1002 NOSIG
Conditions at: VTBD (BANGKOK/DON MUAN, TH) observed 1030 UTC 21 April 2019
Temperature: 36.0°C (97°F)
Dewpoint: 22.0°C (72°F) [RH = 45%]
Pressure (altimeter): 29.59 inches Hg (1002.0 mb)
Winds: from the SSW (210 degrees) at 14 MPH (12 knots; 6.2 m/s)
Visibility: 6 miles ( 9 km)
Ceiling: at least 12,000 feet AGL
Clouds: few clouds at 3000 feet AGL
Weather: no significant weather observed at this time

METAR text: VTBD 211000Z 19010KT 9000 FEW020 37/23 Q1002 NOSIG
Conditions at: VTBD (BANGKOK/DON MUAN, TH) observed 1000 UTC 21 April 2019
Temperature: 37.0°C (99°F)
Dewpoint: 23.0°C (73°F) [RH = 45%]
Pressure (altimeter): 29.59 inches Hg (1002.0 mb)
Winds: from the S (190 degrees) at 12 MPH (10 knots; 5.1 m/s)
Visibility: 6 miles ( 9 km)
Ceiling: at least 12,000 feet AGL
Clouds: few clouds at 2000 feet AGL
Weather: no significant weather observed at this time

METAR text: VTBD 210930Z 20011KT 160V220 9000 FEW020 37/24 Q1002 NOSIG
Conditions at: VTBD (BANGKOK/DON MUAN, TH) observed 0930 UTC 21 April 2019
Temperature: 37.0°C (99°F)
Dewpoint: 24.0°C (75°F) [RH = 48%]
Pressure (altimeter): 29.59 inches Hg (1002.0 mb)
Winds: from the SSW (200 degrees) at 13 MPH (11 knots; 5.7 m/s)
Visibility: 6 miles ( 9 km)
Ceiling: at least 12,000 feet AGL
Clouds: few clouds at 2000 feet AGL
Weather: no significant weather observed at this time

METAR text: VTBD 210900Z 21011KT 180V240 9000 FEW020 38/24 Q1003 NOSIG
Conditions at: VTBD (BANGKOK/DON MUAN, TH) observed 0900 UTC 21 April 2019
Temperature: 38.0°C (100°F)
Dewpoint: 24.0°C (75°F) [RH = 45%]
Pressure (altimeter): 29.62 inches Hg (1003.0 mb)
Winds: from the SSW (210 degrees) at 13 MPH (11 knots; 5.7 m/s)
Visibility: 6 miles ( 9 km)
Ceiling: at least 12,000 feet AGL
Clouds: few clouds at 2000 feet AGL
Weather: no significant weather observed at this time

METAR text: VTBD 210830Z 20010KT 170V230 9000 FEW020 38/23 Q1003 NOSIG
Conditions at: VTBD (BANGKOK/DON MUAN, TH) observed 0830 UTC 21 April 2019
Temperature: 38.0°C (100°F)
Dewpoint: 23.0°C (73°F) [RH = 42%]
Pressure (altimeter): 29.62 inches Hg (1003.0 mb)
Winds: from the SSW (200 degrees) at 12 MPH (10 knots; 5.1 m/s)
Visibility: 6 miles ( 9 km)
Ceiling: at least 12,000 feet AGL
Clouds: few clouds at 2000 feet AGL
Weather: no significant weather observed at this time

METAR text: VTBD 210800Z 17010KT 140V240 9000 FEW020 38/23 Q1003 NOSIG
Conditions at: VTBD (BANGKOK/DON MUAN, TH) observed 0800 UTC 21 April 2019
Temperature: 38.0°C (100°F)
Dewpoint: 23.0°C (73°F) [RH = 42%]
Pressure (altimeter): 29.62 inches Hg (1003.0 mb)
Winds: from the S (170 degrees) at 12 MPH (10 knots; 5.1 m/s)
Visibility: 6 miles ( 9 km)
Ceiling: at least 12,000 feet AGL
Clouds: few clouds at 2000 feet AGL
Weather: no significant weather observed at this time

METAR text: VTBD 210730Z 19009KT 150V220 9000 FEW020 38/23 Q1004 NOSIG
Conditions at: VTBD (BANGKOK/DON MUAN, TH) observed 0730 UTC 21 April 2019
Temperature: 38.0°C (100°F)
Dewpoint: 23.0°C (73°F) [RH = 42%]
Pressure (altimeter): 29.65 inches Hg (1004.0 mb)
Winds: from the S (190 degrees) at 10 MPH (9 knots; 4.6 m/s)
Visibility: 6 miles ( 9 km)
Ceiling: at least 12,000 feet AGL
Clouds: few clouds at 2000 feet AGL
Weather: no significant weather observed at this time

METAR text: VTBD 210700Z VRB09KT 9000 FEW020 38/24 Q1004 NOSIG
Conditions at: VTBD (BANGKOK/DON MUAN, TH) observed 0700 UTC 21 April 2019
Temperature: 38.0°C (100°F)
Dewpoint: 24.0°C (75°F) [RH = 45%]
Pressure (altimeter): 29.65 inches Hg (1004.0 mb)
Winds: variable direction winds at 10 MPH (9 knots; 4.6 m/s)
Visibility: 6 miles ( 9 km)
Ceiling: at least 12,000 feet AGL
Clouds: few clouds at 2000 feet AGL
Weather: no significant weather observed at this time

METAR text: VTBD 210630Z 19009KT 150V230 9000 FEW020 38/23 Q1005 NOSIG
Conditions at: VTBD (BANGKOK/DON MUAN, TH) observed 0630 UTC 21 April 2019
Temperature: 38.0°C (100°F)
Dewpoint: 23.0°C (73°F) [RH = 42%]
Pressure (altimeter): 29.68 inches Hg (1005.0 mb)
Winds: from the S (190 degrees) at 10 MPH (9 knots; 4.6 m/s)
Visibility: 6 miles ( 9 km)
Ceiling: at least 12,000 feet AGL
Clouds: few clouds at 2000 feet AGL
Weather: no significant weather observed at this time

METAR text: VTBD 210600Z 19010KT 150V230 9000 FEW020 38/24 Q1005 NOSIG
Conditions at: VTBD (BANGKOK/DON MUAN, TH) observed 0600 UTC 21 April 2019
Temperature: 38.0°C (100°F)
Dewpoint: 24.0°C (75°F) [RH = 45%]
Pressure (altimeter): 29.68 inches Hg (1005.0 mb)
Winds: from the S (190 degrees) at 12 MPH (10 knots; 5.1 m/s)
Visibility: 6 miles ( 9 km)
Ceiling: at least 12,000 feet AGL
Clouds: few clouds at 2000 feet AGL
Weather: no significant weather observed at this time

METAR text: VTBD 210530Z 18008KT 140V220 9000 FEW020 37/24 Q1006 NOSIG
Conditions at: VTBD (BANGKOK/DON MUAN, TH) observed 0530 UTC 21 April 2019
Temperature: 37.0°C (99°F)
Dewpoint: 24.0°C (75°F) [RH = 48%]
Pressure (altimeter): 29.70 inches Hg (1006.0 mb)
Winds: from the S (180 degrees) at 9 MPH (8 knots; 4.1 m/s)
Visibility: 6 miles ( 9 km)
Ceiling: at least 12,000 feet AGL
Clouds: few clouds at 2000 feet AGL
Weather: no significant weather observed at this time

METAR text: VTBD 210500Z 20010KT 170V230 9000 SCT020 37/24 Q1006 NOSIG
Conditions at: VTBD (BANGKOK/DON MUAN, TH) observed 0500 UTC 21 April 2019
Temperature: 37.0°C (99°F)
Dewpoint: 24.0°C (75°F) [RH = 48%]
Pressure (altimeter): 29.70 inches Hg (1006.0 mb)
Winds: from the SSW (200 degrees) at 12 MPH (10 knots; 5.1 m/s)
Visibility: 6 miles ( 9 km)
Ceiling: at least 12,000 feet AGL
Clouds: scattered clouds at 2000 feet AGL
Weather: no significant weather observed at this time

METAR text: VTBD 210430Z 18008KT 150V210 9000 SCT020 37/26 Q1006 NOSIG
Conditions at: VTBD (BANGKOK/DON MUAN, TH) observed 0430 UTC 21 April 2019
Temperature: 37.0°C (99°F)
Dewpoint: 26.0°C (79°F) [RH = 54%]
Pressure (altimeter): 29.70 inches Hg (1006.0 mb)
Winds: from the S (180 degrees) at 9 MPH (8 knots; 4.1 m/s)
Visibility: 6 miles ( 9 km)
Ceiling: at least 12,000 feet AGL
Clouds: scattered clouds at 2000 feet AGL
Weather: no significant weather observed at this time

METAR text: VTBD 210400Z 19009KT 150V220 9000 SCT020 36/26 Q1007 NOSIG
Conditions at: VTBD (BANGKOK/DON MUAN, TH) observed 0400 UTC 21 April 2019
Temperature: 36.0°C (97°F)
Dewpoint: 26.0°C (79°F) [RH = 57%]
Pressure (altimeter): 29.73 inches Hg (1007.0 mb)
Winds: from the S (190 degrees) at 10 MPH (9 knots; 4.6 m/s)
Visibility: 6 miles ( 9 km)
Ceiling: at least 12,000 feet AGL
Clouds: scattered clouds at 2000 feet AGL
Weather: no significant weather observed at this time

METAR text: VTBD 210330Z 19008KT 130V220 9000 SCT020 35/26 Q1007 NOSIG
Conditions at: VTBD (BANGKOK/DON MUAN, TH) observed 0330 UTC 21 April 2019
Temperature: 35.0°C (95°F)
Dewpoint: 26.0°C (79°F) [RH = 60%]
Pressure (altimeter): 29.73 inches Hg (1007.0 mb)
Winds: from the S (190 degrees) at 9 MPH (8 knots; 4.1 m/s)
Visibility: 6 miles ( 9 km)
Ceiling: at least 12,000 feet AGL
Clouds: scattered clouds at 2000 feet AGL
Weather: no significant weather observed at this time

METAR text: VTBD 210300Z 17006KT 120V210 9000 SCT020 SCT030 34/27 Q1007 NOSIG
Conditions at: VTBD (BANGKOK/DON MUAN, TH) observed 0300 UTC 21 April 2019
Temperature: 34.0°C (93°F)
Dewpoint: 27.0°C (81°F) [RH = 67%]
Pressure (altimeter): 29.73 inches Hg (1007.0 mb)
Winds: from the S (170 degrees) at 7 MPH (6 knots; 3.1 m/s)
Visibility: 6 miles ( 9 km)
Ceiling: at least 12,000 feet AGL
Clouds: scattered clouds at 2000 feet AGL
scattered clouds at 3000 feet AGL
Weather: no significant weather observed at this time

METAR text: VTBD 210230Z 15005KT 080V190 9000 SCT020 SCT030 33/27 Q1007 NOSIG
Conditions at: VTBD (BANGKOK/DON MUAN, TH) observed 0230 UTC 21 April 2019
Temperature: 33.0°C (91°F)
Dewpoint: 27.0°C (81°F) [RH = 71%]
Pressure (altimeter): 29.73 inches Hg (1007.0 mb)
Winds: from the SSE (150 degrees) at 6 MPH (5 knots; 2.6 m/s)
Visibility: 6 miles ( 9 km)
Ceiling: at least 12,000 feet AGL
Clouds: scattered clouds at 2000 feet AGL
scattered clouds at 3000 feet AGL
Weather: no significant weather observed at this time

Forecast for: VTBD (BANGKOK/DON MUAN, TH)
Text: TAF VTBD 221100Z 2212/2318 18010KT 9000 FEW025
Forecast period: 1200 to 2000 UTC 22 April 2019
Forecast type: FROM: standard forecast or significant change
Winds: from the S (180 degrees) at 12 MPH (10 knots; 5.1 m/s)
Visibility: 6 miles (9 km)
Ceiling: at least 12,000 feet AGL
Clouds: few clouds at 2500 feet AGL
Weather: no significant weather forecast for this period
Text: TEMPO 2212/2216 14010G25KT 5000 TSRA FEW018CB SCT030 BKN100
Forecast period: 1200 to 1600 UTC 22 April 2019
Forecast type: TEMPORARY: The following changes expected for less than half the time period
Winds: from the SE (140 degrees) at 12 MPH (10 knots; 5.1 m/s)
gusting to 29 MPH (25 knots; 12.9 m/s)
Visibility: 3 miles (5 km)
Ceiling: 10000 feet AGL
Clouds: few clouds at 1800 feet AGL
scattered clouds at 3000 feet AGL
broken clouds at 10000 feet AGL
Weather: TSRA  (rain associated with thunderstorm(s))
Text: BECMG 2220/2222 12005KT 7000
Forecast period: 2000 UTC 22 April 2019 to 0000 UTC 23 April 2019
Forecast type: BECOMING: Conditions expected to become as follows by 2200 UTC 22 April 2019
Winds: from the ESE (120 degrees) at 6 MPH (5 knots; 2.6 m/s)
Visibility: 4 miles (7 km)
Ceiling: at least 12,000 feet AGL
Clouds: few clouds at 2500 feet AGL
Weather: no significant weather forecast for this period
Text: BECMG 2300/2302 18010KT 9000
Forecast period: 0000 to 1800 UTC 23 April 2019
Forecast type: BECOMING: Conditions expected to become as follows by 0200 UTC 23 April 2019
Winds: from the S (180 degrees) at 12 MPH (10 knots; 5.1 m/s)
Visibility: 6 miles (9 km)
Ceiling: at least 12,000 feet AGL
Clouds: few clouds at 2500 feet AGL
Weather: no significant weather forecast for this period
Text: TEMPO 2307/2312 15010G25KT 5000 TSRA FEW018CB SCT030 BKN100
Forecast period: 0700 to 1200 UTC 23 April 2019
Forecast type: TEMPORARY: The following changes expected for less than half the time period
Winds: from the SSE (150 degrees) at 12 MPH (10 knots; 5.1 m/s)
gusting to 29 MPH (25 knots; 12.9 m/s)
Visibility: 3 miles (5 km)
Ceiling: 10000 feet AGL
Clouds: few clouds at 1800 feet AGL
scattered clouds at 3000 feet AGL
broken clouds at 10000 feet AGL
Weather: TSRA  (rain associated with thunderstorm(s))